Terminal Aerodrome Forecast
Issued by NWS North Platte, NE

Home | Current Version | Previous Version | Text Only | Print | Product List | Glossary On
Versions: 1 2 3 4 5 6 7 8 9 10 11 12 13 14 15 16 17 18 19 20 21 22 23 24 25 26 27 28
537
FTUS43 KLBF 121720
TAFVTN
TAF
KVTN 121720Z 1218/1318 07009KT P6SM OVC012
     FM130100 11008KT P6SM OVC025
     FM130800 15012KT 6SM -FZDZ OVC015=

USA.gov is the U.S. government's official web portal to all federal, state and local government web resources and services.